createdAt,value
2019-05-10T00:17:19.313Z,10.40
2019-05-10T00:37:18.718Z,11.52
2019-05-10T00:57:28.049Z,11.89
2019-05-10T01:17:37.381Z,14.37
2019-05-10T01:37:47.560Z,8.56
2019-05-10T01:57:46.910Z,7.35
2019-05-10T02:17:56.401Z,7.37
2019-05-10T02:38:05.793Z,7.37
2019-05-10T02:58:15.554Z,5.32
2019-05-10T03:18:24.146Z,4.50
2019-05-10T03:38:33.491Z,4.88
2019-05-10T03:58:43.076Z,5.41
2019-05-10T04:18:54.743Z,8.00
2019-05-10T04:38:54.350Z,7.01
2019-05-10T04:59:03.899Z,4.95
2019-05-10T05:19:13.530Z,5.51
2019-05-10T05:39:22.803Z,6.58
2019-05-10T05:59:32.136Z,9.47
2019-05-10T06:19:41.480Z,12.60
2019-05-10T06:39:50.857Z,8.55
2019-05-10T07:00:05.987Z,10.51
2019-05-10T07:20:09.273Z,9.30
2019-05-10T07:40:18.680Z,7.76
2019-05-10T08:00:28.145Z,9.51
2019-05-10T08:20:49.301Z,10.91
2019-05-10T08:40:46.681Z,14.04
2019-05-10T09:01:15.370Z,11.80
2019-05-10T09:21:09.214Z,9.51
2019-05-10T09:41:09.078Z,8.70
2019-05-10T10:01:14.794Z,13.19
2019-05-10T10:21:18.843Z,15.06
2019-05-10T10:41:31.298Z,6.97
2019-05-10T11:01:49.146Z,7.43
2019-05-10T11:21:51.212Z,11.96
2019-05-10T11:41:52.838Z,6.26
2019-05-10T12:01:58.092Z,5.85
2019-05-10T12:22:06.251Z,8.26
2019-05-10T12:42:17.928Z,7.53
2019-05-10T13:02:17.873Z,4.21
2019-05-10T13:22:37.092Z,4.45
2019-05-10T13:42:30.674Z,4.41
2019-05-10T14:02:33.178Z,4.62
2019-05-10T14:23:37.345Z,5.59
2019-05-10T14:43:34.905Z,6.38
2019-05-10T15:03:45.731Z,6.50
2019-05-10T15:23:55.241Z,6.69
2019-05-10T15:44:04.415Z,6.27
2019-05-10T16:04:03.939Z,6.07
2019-05-10T16:24:13.572Z,5.94
2019-05-10T16:44:23.239Z,7.15
2019-05-10T17:04:22.981Z,6.93
2019-05-10T17:24:33.545Z,6.92
2019-05-10T17:44:32.935Z,6.65
2019-05-10T18:04:42.404Z,6.49
2019-05-10T18:24:52.012Z,7.55
2019-05-10T18:45:01.468Z,8.06
2019-05-10T19:05:13.460Z,8.33
2019-05-10T19:25:20.698Z,7.94
2019-05-10T19:45:31.149Z,10.34
2019-05-10T20:05:39.262Z,10.34
2019-05-10T20:25:50.851Z,11.04
2019-05-10T20:45:50.279Z,13.81
2019-05-10T21:06:01.993Z,13.48
2019-05-10T21:26:01.343Z,12.48
2019-05-10T21:46:10.748Z,12.47
2019-05-10T22:06:22.413Z,12.93
2019-05-10T22:26:24.022Z,13.33
2019-05-10T22:46:23.397Z,15.38
2019-05-10T23:06:32.809Z,14.59
2019-05-10T23:26:42.209Z,14.57
2019-05-10T23:46:51.573Z,15.81
